Terminal Aerodrome Forecast
Issued by NWS Cleveland, OH

Home | Current Version | Previous Version | Text Only | Print | Product List | Glossary On
Versions: 1 2 3 4 5 6 7 8 9 10 11 12 13 14 15 16 17 18 19 20 21
000
FTUS41 KCLE 220100 AAA
TAFCAK
TAF AMD
KCAK 220156Z 2202/2224 34012KT 6SM -RA BR BKN006 OVC015
      TEMPO 2202/2206 4SM -RA BR
     FM220600 35010KT P6SM OVC008
     FM221400 36010KT P6SM OVC015
     FM221800 36010KT P6SM OVC025
     FM222200 36010KT P6SM BKN035=

USA.gov is the U.S. government's official web portal to all federal, state and local government web resources and services.